Terminal Aerodrome Forecast
Issued by NWS

Home | Current Version | Previous Version | Text Only | Print | Product List | Glossary On
Versions: 1 2 3 4 5 6 7 8 9 10 11 12 13 14 15 16 17 18 19 20 21 22 23
000
FTUS43 KGRB 271132
TAFAUW
TAF
KAUW 271132Z 2712/2812 02004KT P6SM SKC
     FM271600 04007KT P6SM SCT040
      TEMPO 2718/2722 BKN040
     FM272200 04006KT P6SM SCT050=

USA.gov is the U.S. government's official web portal to all federal, state and local government web resources and services.